createdAt,value
2019-02-15T08:27:22.528Z,23.31
2019-02-15T08:28:21.673Z,23.29
2019-02-15T08:29:21.590Z,24.20
2019-02-15T08:30:22.157Z,27.71
2019-02-15T08:31:21.396Z,26.21
2019-02-15T08:32:21.400Z,25.10
2019-02-15T08:33:23.446Z,24.13
2019-02-15T08:34:21.304Z,23.70
2019-02-15T08:35:21.210Z,23.45
2019-02-15T08:36:21.312Z,23.43
2019-02-15T08:37:20.995Z,23.26
2019-02-15T08:38:21.037Z,23.20
2019-02-15T08:39:21.142Z,23.17
2019-02-15T08:40:21.044Z,23.19
2019-02-15T08:41:20.549Z,23.15
2019-02-15T08:42:20.871Z,23.17
2019-02-15T08:43:20.351Z,23.27
2019-02-15T08:44:20.306Z,23.64
2019-02-15T08:45:20.796Z,24.27
2019-02-15T08:49:12.818Z,24.53
2019-02-15T08:50:12.628Z,24.56
2019-02-15T08:51:13.344Z,25.69
2019-02-15T08:52:12.636Z,25.06
2019-02-15T08:53:12.541Z,24.44
2019-02-15T08:54:13.693Z,24.08
2019-02-15T08:55:12.546Z,23.72
2019-02-15T08:56:12.677Z,23.46
2019-02-15T08:57:25.264Z,23.38
2019-02-15T08:58:12.682Z,23.15
2019-02-15T08:59:12.498Z,22.99
2019-02-15T09:00:12.493Z,22.94
2019-02-15T09:01:12.599Z,22.77
2019-02-15T09:02:12.510Z,22.72
2019-02-15T09:03:13.219Z,22.72
2019-02-15T09:04:12.415Z,22.64
2019-02-15T09:05:12.435Z,22.56
2019-02-15T09:06:12.431Z,22.53
2019-02-15T09:07:12.433Z,22.50
2019-02-15T09:08:12.371Z,22.47
2019-02-15T09:09:13.163Z,22.49
2019-02-15T09:10:12.406Z,22.46
2019-02-15T09:11:12.357Z,22.46
2019-02-15T09:12:12.361Z,22.34
2019-02-15T09:13:13.320Z,22.37
2019-02-15T09:14:12.593Z,22.31
2019-02-15T09:15:13.104Z,22.22
2019-02-15T09:16:12.302Z,22.28
2019-02-15T09:17:12.308Z,22.22
2019-02-15T09:18:13.128Z,22.29
2019-02-15T09:19:12.220Z,22.27
2019-02-15T09:20:12.322Z,22.29
2019-02-15T09:21:13.152Z,22.29
2019-02-15T09:22:12.224Z,22.32
2019-02-15T09:23:12.349Z,22.34
2019-02-15T09:24:12.253Z,22.31
2019-02-15T09:25:12.148Z,22.37
2019-02-15T09:26:17.986Z,22.50
2019-02-15T09:27:13.708Z,22.38
2019-02-15T09:28:12.210Z,22.41
2019-02-15T09:29:12.393Z,22.39
2019-02-15T09:30:12.612Z,22.54
2019-02-15T09:31:12.090Z,22.47
2019-02-15T09:32:12.105Z,22.52
2019-02-15T09:33:13.919Z,22.52
2019-02-15T09:34:12.111Z,22.44
2019-02-15T09:35:13.667Z,22.47
2019-02-15T09:36:12.024Z,22.50
2019-02-15T09:37:12.043Z,22.64
2019-02-15T09:38:12.040Z,22.49
2019-02-15T09:39:25.884Z,22.53
2019-02-15T09:40:12.074Z,22.59
2019-02-15T09:41:12.059Z,22.57
2019-02-15T09:42:11.967Z,22.64
2019-02-15T09:43:12.076Z,22.68
2019-02-15T09:44:12.064Z,22.60
2019-02-15T09:45:19.918Z,22.64
2019-02-15T09:46:19.629Z,22.65
2019-02-15T09:47:12.969Z,22.64
2019-02-15T09:48:11.907Z,22.59
2019-02-15T09:49:11.921Z,22.57
2019-02-15T09:50:12.418Z,22.57
2019-02-15T09:52:54.648Z,22.57
2019-02-15T09:53:21.649Z,22.60
2019-02-15T09:54:20.669Z,22.64
2019-02-15T09:55:20.572Z,22.65
2019-02-15T09:56:20.677Z,22.59
2019-02-15T09:57:20.581Z,22.59
2019-02-15T09:58:21.819Z,22.60
2019-02-15T09:59:20.586Z,22.52
2019-02-15T10:00:20.503Z,22.32
2019-02-15T10:01:20.497Z,22.35
2019-02-15T10:02:20.512Z,22.25
2019-02-15T10:03:21.228Z,22.10
2019-02-15T10:04:21.913Z,22.07
2019-02-15T10:05:20.528Z,22.01
2019-02-15T10:06:20.429Z,21.98
2019-02-15T10:07:20.546Z,21.98
2019-02-15T10:08:20.556Z,21.85
2019-02-15T10:09:20.584Z,21.83
2019-02-15T10:10:21.518Z,21.78
2019-02-15T10:11:20.372Z,21.82
2019-02-15T10:12:20.380Z,21.74
2019-02-15T10:13:20.353Z,21.64
2019-02-15T10:14:20.396Z,21.59
2019-02-15T10:15:20.325Z,21.48
2019-02-15T10:16:30.804Z,21.54
2019-02-15T10:17:20.322Z,21.46
2019-02-15T10:18:20.288Z,21.39
2019-02-15T10:19:22.405Z,21.35
2019-02-15T10:20:20.289Z,21.27
2019-02-15T10:21:20.340Z,21.29
2019-02-15T10:23:57.586Z,21.20
2019-02-15T10:24:29.479Z,21.19
2019-02-15T10:25:29.480Z,20.99
2019-02-15T10:26:29.400Z,20.91
2019-02-15T10:27:29.399Z,20.90
2019-02-15T10:28:29.433Z,20.77
2019-02-15T10:31:54.161Z,20.53
2019-02-15T10:32:46.610Z,20.41
2019-02-15T10:33:46.489Z,20.35
2019-02-15T10:34:46.567Z,20.24
2019-02-15T10:35:46.511Z,20.25
2019-02-15T10:36:46.468Z,20.28
2019-02-15T10:37:48.455Z,20.39
2019-02-15T10:38:46.427Z,20.42
2019-02-15T10:39:46.509Z,20.47
2019-02-15T10:40:46.495Z,20.43
2019-02-15T10:41:46.395Z,20.50
2019-02-15T10:42:46.404Z,20.54
2019-02-15T10:45:29.760Z,20.65
2019-02-15T10:45:55.254Z,20.74
2019-02-15T10:46:55.332Z,20.72
2019-02-15T10:47:55.239Z,20.77
2019-02-15T10:48:55.361Z,20.74
2019-02-15T10:49:55.263Z,20.77
2019-02-15T10:51:17.481Z,20.71
2019-02-15T10:51:55.211Z,20.61
2019-02-15T10:52:55.130Z,20.64
2019-02-15T10:53:55.154Z,20.58
2019-02-15T10:54:55.195Z,20.47
2019-02-15T10:55:55.096Z,20.39
2019-02-15T10:57:02.362Z,20.31
2019-02-15T10:57:55.075Z,20.20
2019-02-15T10:58:55.067Z,20.16
2019-02-15T10:59:55.133Z,20.10
2019-02-15T11:00:55.235Z,19.97
2019-02-15T11:01:55.164Z,19.95
2019-02-15T11:02:57.406Z,19.87
2019-02-15T11:03:55.804Z,19.80
2019-02-15T11:04:55.055Z,19.78
2019-02-15T11:05:55.041Z,19.76
2019-02-15T11:06:55.121Z,19.76
2019-02-15T11:07:54.970Z,19.79
2019-02-15T11:09:23.574Z,19.86
2019-02-15T11:09:54.980Z,19.91
2019-02-15T11:10:54.967Z,19.91
2019-02-15T11:11:54.933Z,19.98
2019-02-15T11:12:54.991Z,19.98
2019-02-15T11:13:54.912Z,20.10
2019-02-15T11:16:20.128Z,20.10
2019-02-15T11:17:06.162Z,20.18
2019-02-15T11:18:06.018Z,20.24
2019-02-15T11:19:06.350Z,20.10
2019-02-15T11:20:05.933Z,20.27
2019-02-15T11:21:06.431Z,20.18
2019-02-15T11:22:07.396Z,20.24
2019-02-15T11:23:05.876Z,20.08
2019-02-15T11:24:05.883Z,20.18
2019-02-15T11:25:06.194Z,20.18
2019-02-15T11:26:06.886Z,20.20
2019-02-15T11:27:05.861Z,20.27
2019-02-15T11:28:19.180Z,20.21
2019-02-15T11:29:08.477Z,20.23
2019-02-15T11:30:05.786Z,20.24
2019-02-15T11:31:05.916Z,20.30
2019-02-15T11:32:05.999Z,20.39
2019-02-15T11:33:05.814Z,20.38
2019-02-15T11:34:06.348Z,20.35
2019-02-15T11:35:05.915Z,20.42
2019-02-15T11:36:05.833Z,20.42
2019-02-15T11:37:05.838Z,20.53
2019-02-15T11:38:05.735Z,20.47
2019-02-15T11:39:05.887Z,20.65
2019-02-15T11:40:05.955Z,20.58
2019-02-15T11:41:11.171Z,20.59
2019-02-15T11:42:06.831Z,20.62
2019-02-15T11:43:05.671Z,20.65
2019-02-15T11:44:05.691Z,20.69
2019-02-15T11:45:06.454Z,20.68
2019-02-15T11:46:06.415Z,20.74
2019-02-15T11:47:06.530Z,20.76
2019-02-15T11:48:05.569Z,20.74
2019-02-15T11:49:05.576Z,20.77
2019-02-15T11:50:05.632Z,20.84
2019-02-15T11:51:05.529Z,20.79
2019-02-15T11:52:05.966Z,20.84
2019-02-15T11:53:05.567Z,20.93
2019-02-15T11:54:08.489Z,20.91
2019-02-15T11:55:05.560Z,20.90
2019-02-15T11:56:06.890Z,20.98
2019-02-15T11:57:05.566Z,21.01
2019-02-15T11:58:06.294Z,21.01
2019-02-15T11:59:05.493Z,20.99
2019-02-15T12:00:13.926Z,21.05
2019-02-15T12:01:06.418Z,21.04
2019-02-15T12:02:06.620Z,21.01
2019-02-15T12:03:05.410Z,21.04
2019-02-15T12:04:05.789Z,21.08
2019-02-15T12:05:05.420Z,21.06
2019-02-15T12:06:05.490Z,21.14
2019-02-15T12:07:05.448Z,21.11
2019-02-15T12:08:05.341Z,21.11
2019-02-15T12:09:05.353Z,21.13
2019-02-15T12:10:05.881Z,21.14
2019-02-15T12:11:05.360Z,21.23
2019-02-15T12:12:10.712Z,21.21
2019-02-15T12:13:06.293Z,21.26
2019-02-15T12:14:05.271Z,21.24
2019-02-15T12:15:05.293Z,21.16
2019-02-15T12:16:06.637Z,21.23
2019-02-15T12:17:05.873Z,21.29
2019-02-15T12:18:05.269Z,21.21
2019-02-15T12:19:05.323Z,21.21
2019-02-15T12:20:05.202Z,21.21
2019-02-15T12:21:05.193Z,21.17
